Palestine, Ohio
Current Conditions -  °F | °C
As of 6:35 PM on Friday 31 Oct 2014 (Local Time) from KVES Reporting Station
Moderate Rain Moderate Rain  
Wind Chill: 33°   Ceiling: 1200
Heat Index: 39°   Visibility: 10mi
Dew Point: 37°   Wind: 9mph
Humidity: 93%   Direction: 320°NW
Pressure: 29.93"   Gusts: NA
Location:  40.05°N, 84.74°W
Report Text: KVES 312235Z AUTO 32008KT 10SM RA BKN012 OVC025 04/03 A2993 RMK AO2
Loading
Personal Weather Stations






























Interactive Weather Map
Tropical Storm Tracking
New forecast layout! Learn more

10-Day Weather Forecast

Advertisements
Track Severe Weather on mobile